Time;durP1;ratioP1;P1;durP2;ratioP2;P2;SDS_P1;SDS_P2;PMS_P1;PMS_P2;Temp;Humidity;BMP_temperature;BMP_pressure;BME280_temperature;BME280_humidity;BME280_pressure;Samples;Min_cycle;Max_cycle;Signal;HPM_P1;HPM_P2
2021/09/11 00:00:35;;;;;;;16.63;15.03;;;;;;;;;;5073281;28;20303;-62
2021/09/11 00:03:01;;;;;;;18.53;16.97;;;;;;;;;;5055366;28;20245;-61
2021/09/11 00:05:27;;;;;;;16.97;15.53;;;;;;;;;;5073386;28;20576;-61
2021/09/11 00:07:52;;;;;;;16.20;14.80;;;;;;;;;;5072894;28;20277;-62
2021/09/11 00:10:18;;;;;;;17.10;15.70;;;;;;;;;;5073175;28;20236;-62
2021/09/11 00:12:44;;;;;;;17.27;15.77;;;;;;;;;;5073361;28;20717;-62
2021/09/11 00:15:12;;;;;;;15.27;14.07;;;;;;;;;;5072784;28;20264;-62
2021/09/11 00:17:38;;;;;;;15.70;14.50;;;;;;;;;;5055377;28;20471;-62
2021/09/11 00:20:04;;;;;;;17.10;15.60;;;;;;;;;;5072503;28;20467;-63
2021/09/11 00:22:29;;;;;;;17.60;15.93;;;;;;;;;;5072992;28;20795;-63
2021/09/11 00:24:55;;;;;;;16.43;15.10;;;;;;;;;;5075825;28;20459;-63
2021/09/11 00:27:20;;;;;;;15.83;14.50;;;;;;;;;;5076558;28;20243;-62
2021/09/11 00:29:45;;;;;;;16.57;15.23;;;;;;;;;;5076563;28;20338;-62
2021/09/11 00:32:11;;;;;;;15.60;14.50;;;;;;;;;;5075769;28;20675;-62
2021/09/11 00:34:36;;;;;;;17.50;14.20;;;;;;;;;;5076741;28;20699;-62
2021/09/11 00:37:01;;;;;;;16.10;14.63;;;;;;;;;;5076026;28;20220;-62
2021/09/11 00:39:26;;;;;;;16.17;14.77;;;;;;;;;;5077670;28;20212;-62
2021/09/11 00:41:52;;;;;;;15.90;14.50;;;;;;;;;;5076042;28;20216;-63
2021/09/11 00:44:17;;;;;;;16.00;14.63;;;;;;;;;;5076309;28;20527;-61
2021/09/11 00:46:43;;;;;;;16.10;14.60;;;;;;;;;;5076436;28;20540;-62
2021/09/11 00:49:08;;;;;;;15.83;14.53;;;;;;;;;;5075914;28;20220;-62
2021/09/11 00:51:34;;;;;;;14.77;13.43;;;;;;;;;;5058709;28;20227;-62
2021/09/11 00:54:00;;;;;;;15.53;14.13;;;;;;;;;;5058207;28;20216;-63
2021/09/11 00:56:27;;;;;;;18.50;17.00;;;;;;;;;;5058629;28;20212;-62
2021/09/11 00:58:52;;;;;;;15.80;14.33;;;;;;;;;;5058034;28;20521;-63
2021/09/11 01:01:17;;;;;;;16.63;15.23;;;;;;;;;;5076105;28;20951;-62
2021/09/11 01:03:42;;;;;;;15.00;13.73;;;;;;;;;;5076322;28;20224;-62
2021/09/11 01:06:09;;;;;;;15.50;14.00;;;;;;;;;;5075606;28;20234;-62
2021/09/11 01:08:34;;;;;;;16.93;14.97;;;;;;;;;;5075784;28;20623;-62
2021/09/11 01:11:00;;;;;;;15.97;14.67;;;;;;;;;;5075331;28;20491;-62
2021/09/11 01:13:25;;;;;;;15.50;14.20;;;;;;;;;;5075833;28;20224;-61
2021/09/11 01:15:56;;;;;;;16.00;14.50;;;;;;;;;;5075787;28;20540;-62
2021/09/11 01:18:22;;;;;;;15.67;14.37;;;;;;;;;;5075647;28;20446;-62
2021/09/11 01:20:47;;;;;;;16.83;15.53;;;;;;;;;;5075479;28;20538;-62
2021/09/11 01:23:12;;;;;;;19.60;18.10;;;;;;;;;;5075385;28;20217;-62
2021/09/11 01:25:38;;;;;;;18.50;17.00;;;;;;;;;;5075667;28;20590;-62
2021/09/11 01:28:03;;;;;;;18.47;17.00;;;;;;;;;;5075012;28;20262;-63
2021/09/11 01:30:28;;;;;;;20.67;18.50;;;;;;;;;;5057705;28;20213;-62
2021/09/11 01:32:54;;;;;;;20.13;18.40;;;;;;;;;;5075240;28;20266;-61
2021/09/11 01:35:19;;;;;;;20.10;18.33;;;;;;;;;;5075015;28;20672;-62
2021/09/11 01:37:44;;;;;;;18.23;16.77;;;;;;;;;;5075454;28;20215;-62
2021/09/11 01:40:10;;;;;;;19.60;17.80;;;;;;;;;;5074482;28;20216;-62
2021/09/11 01:42:36;;;;;;;19.50;17.90;;;;;;;;;;5057703;28;20299;-62
2021/09/11 01:45:10;;;;;;;18.73;17.23;;;;;;;;;;5074998;28;20212;-63
2021/09/11 01:47:36;;;;;;;18.73;17.20;;;;;;;;;;5075272;28;20224;-62
2021/09/11 01:50:02;;;;;;;18.37;16.60;;;;;;;;;;5074754;28;20455;-62
2021/09/11 01:52:28;;;;;;;18.00;16.20;;;;;;;;;;5074943;28;20473;-62
2021/09/11 01:54:53;;;;;;;18.37;16.87;;;;;;;;;;5074922;28;20488;-61
2021/09/11 01:57:18;;;;;;;17.07;15.43;;;;;;;;;;5074673;28;20213;-62
2021/09/11 01:59:44;;;;;;;17.73;16.43;;;;;;;;;;5074766;28;20307;-62
2021/09/11 02:02:09;;;;;;;16.83;15.27;;;;;;;;;;5056700;28;20269;-63
2021/09/11 02:04:35;;;;;;;17.37;15.60;;;;;;;;;;5074745;28;20219;-62
2021/09/11 02:07:03;;;;;;;17.50;15.97;;;;;;;;;;5074510;28;20219;-62
2021/09/11 02:09:29;;;;;;;15.87;14.37;;;;;;;;;;5057556;28;20220;-62
2021/09/11 02:11:54;;;;;;;17.43;15.93;;;;;;;;;;5074636;28;20950;-62
2021/09/11 02:14:20;;;;;;;17.90;16.10;;;;;;;;;;5074511;28;20235;-61
2021/09/11 02:16:45;;;;;;;18.40;16.97;;;;;;;;;;5057253;28;20564;-61
2021/09/11 02:19:11;;;;;;;16.80;15.47;;;;;;;;;;5074140;28;20282;-62
2021/09/11 02:21:36;;;;;;;17.30;15.77;;;;;;;;;;5074323;28;20251;-62
2021/09/11 02:24:02;;;;;;;18.87;17.27;;;;;;;;;;5074041;28;20479;-62
2021/09/11 02:26:27;;;;;;;17.60;16.20;;;;;;;;;;5074422;28;20645;-61
2021/09/11 02:28:52;;;;;;;17.90;16.20;;;;;;;;;;5074270;28;20224;-62
2021/09/11 02:31:18;;;;;;;17.77;16.23;;;;;;;;;;5074018;28;20702;-62
2021/09/11 02:33:44;;;;;;;16.70;15.30;;;;;;;;;;5056864;28;20220;-63
2021/09/11 02:36:09;;;;;;;18.17;16.77;;;;;;;;;;5073895;28;20219;-61
2021/09/11 02:38:34;;;;;;;17.67;16.17;;;;;;;;;;5074210;28;20270;-61
2021/09/11 02:40:59;;;;;;;18.67;16.87;;;;;;;;;;5074167;28;20273;-61
2021/09/11 02:43:25;;;;;;;18.40;16.90;;;;;;;;;;5073613;28;20295;-62
2021/09/11 02:45:50;;;;;;;19.83;18.03;;;;;;;;;;5073619;28;20221;-62
2021/09/11 02:48:15;;;;;;;19.53;17.70;;;;;;;;;;5073352;28;20302;-61
2021/09/11 02:50:41;;;;;;;17.93;16.33;;;;;;;;;;5073843;28;20240;-62
2021/09/11 02:53:06;;;;;;;18.40;16.80;;;;;;;;;;5073504;28;20549;-61
2021/09/11 02:55:31;;;;;;;18.33;16.70;;;;;;;;;;5073521;28;20212;-61
2021/09/11 02:57:56;;;;;;;17.13;15.67;;;;;;;;;;5071560;28;20243;-61
2021/09/11 03:00:22;;;;;;;18.83;17.13;;;;;;;;;;5073014;28;20307;-62
2021/09/11 03:02:47;;;;;;;19.03;17.27;;;;;;;;;;5082061;28;20219;-62
2021/09/11 03:05:12;;;;;;;19.20;17.40;;;;;;;;;;5082492;28;20290;-62
2021/09/11 03:07:38;;;;;;;18.90;17.30;;;;;;;;;;5087107;28;20695;-62
2021/09/11 03:10:03;;;;;;;20.50;18.70;;;;;;;;;;5084536;28;20224;-63
2021/09/11 03:12:28;;;;;;;19.10;17.50;;;;;;;;;;5079617;28;20223;-63
2021/09/11 03:14:54;;;;;;;20.67;18.63;;;;;;;;;;5083033;28;20235;-62
2021/09/11 03:17:19;;;;;;;19.93;18.10;;;;;;;;;;5086440;28;20679;-62
2021/09/11 03:19:44;;;;;;;19.53;17.73;;;;;;;;;;5083565;28;20312;-62
2021/09/11 03:22:10;;;;;;;20.50;18.63;;;;;;;;;;5079596;28;20659;-61
2021/09/11 03:24:35;;;;;;;19.17;17.40;;;;;;;;;;5084102;28;20270;-62
2021/09/11 03:27:00;;;;;;;20.13;18.07;;;;;;;;;;5087207;28;20292;-62
2021/09/11 03:29:25;;;;;;;20.40;18.57;;;;;;;;;;5064590;28;20231;-62
2021/09/11 03:31:51;;;;;;;19.23;17.47;;;;;;;;;;5079699;28;20675;-62
2021/09/11 03:34:16;;;;;;;20.10;18.40;;;;;;;;;;5083411;28;20236;-62
2021/09/11 03:36:41;;;;;;;19.50;17.80;;;;;;;;;;5086975;28;20239;-62
2021/09/11 03:39:06;;;;;;;19.93;18.07;;;;;;;;;;5082133;28;20216;-62
2021/09/11 03:41:32;;;;;;;17.50;16.00;;;;;;;;;;5079614;28;20301;-62
2021/09/11 03:43:57;;;;;;;19.63;15.93;;;;;;;;;;5084561;28;20208;-62
2021/09/11 03:46:22;;;;;;;19.10;17.27;;;;;;;;;;5086309;28;20231;-62
2021/09/11 03:48:48;;;;;;;23.97;21.60;;;;;;;;;;5081937;28;20664;-63
2021/09/11 03:51:13;;;;;;;31.80;28.60;;;;;;;;;;5079232;28;20721;-61
2021/09/11 03:53:38;;;;;;;27.73;24.17;;;;;;;;;;5085078;28;20682;-61
2021/09/11 03:56:04;;;;;;;26.43;23.90;;;;;;;;;;5086612;28;20216;-61
2021/09/11 03:58:29;;;;;;;29.10;26.33;;;;;;;;;;5073579;28;20573;-62
2021/09/11 04:00:55;;;;;;;28.93;26.13;;;;;;;;;;5090546;28;20216;-63
2021/09/11 04:03:20;;;;;;;29.40;26.20;;;;;;;;;;5087199;28;20299;-63
2021/09/11 04:05:45;;;;;;;22.70;20.70;;;;;;;;;;5083696;28;20214;-62
2021/09/11 04:08:10;;;;;;;32.23;29.23;;;;;;;;;;5086298;28;20236;-63
2021/09/11 04:10:36;;;;;;;31.43;28.03;;;;;;;;;;5090175;28;20278;-62
2021/09/11 04:13:01;;;;;;;28.67;25.60;;;;;;;;;;5087089;28;20244;-62
2021/09/11 04:15:26;;;;;;;25.40;23.00;;;;;;;;;;5082990;28;20215;-62
2021/09/11 04:17:51;;;;;;;28.53;25.93;;;;;;;;;;5068908;28;20315;-62
2021/09/11 04:20:17;;;;;;;34.77;31.50;;;;;;;;;;5089337;28;20228;-63
2021/09/11 04:22:42;;;;;;;23.67;21.67;;;;;;;;;;5086848;28;20254;-61
2021/09/11 04:25:08;;;;;;;25.67;23.40;;;;;;;;;;5082954;28;20660;-62
2021/09/11 04:27:33;;;;;;;28.10;25.30;;;;;;;;;;5086477;28;20212;-61
2021/09/11 04:29:58;;;;;;;18.60;17.00;;;;;;;;;;5072280;28;20610;-61
2021/09/11 04:32:24;;;;;;;24.30;22.00;;;;;;;;;;5075653;28;20220;-62
2021/09/11 04:34:49;;;;;;;27.90;25.20;;;;;;;;;;5089454;28;20209;-60
2021/09/11 04:37:15;;;;;;;25.43;23.33;;;;;;;;;;5087980;28;20573;-61
2021/09/11 04:39:40;;;;;;;29.27;26.33;;;;;;;;;;5096428;28;20230;-62
2021/09/11 04:42:06;;;;;;;28.00;24.97;;;;;;;;;;5087011;28;20451;-61
2021/09/11 04:44:31;;;;;;;23.80;21.70;;;;;;;;;;5089436;28;20226;-61
2021/09/11 04:46:56;;;;;;;29.00;26.20;;;;;;;;;;5084978;28;20296;-61
2021/09/11 04:49:22;;;;;;;25.03;22.80;;;;;;;;;;5082153;28;20217;-61
2021/09/11 04:51:47;;;;;;;30.00;27.23;;;;;;;;;;5087240;28;20219;-61
2021/09/11 04:54:12;;;;;;;23.17;20.93;;;;;;;;;;5089392;28;20310;-62
2021/09/11 04:56:37;;;;;;;29.30;26.50;;;;;;;;;;5084294;28;20254;-61
2021/09/11 04:59:03;;;;;;;25.83;23.40;;;;;;;;;;5082095;28;20235;-61
2021/09/11 05:01:28;;;;;;;26.03;23.73;;;;;;;;;;5088023;28;20243;-61
2021/09/11 05:03:53;;;;;;;22.80;20.77;;;;;;;;;;5089840;28;20295;-62
2021/09/11 05:06:19;;;;;;;27.13;24.47;;;;;;;;;;5082705;28;20254;-62
2021/09/11 05:08:44;;;;;;;28.23;25.63;;;;;;;;;;5081941;28;20216;-62
2021/09/11 05:11:09;;;;;;;22.37;20.23;;;;;;;;;;5088146;28;20347;-61
2021/09/11 05:13:35;;;;;;;24.40;21.87;;;;;;;;;;5088723;28;20231;-61
2021/09/11 05:16:00;;;;;;;26.83;24.37;;;;;;;;;;5082679;28;20224;-62
2021/09/11 05:18:25;;;;;;;26.10;23.60;;;;;;;;;;5081708;28;20238;-60
2021/09/11 05:20:50;;;;;;;22.17;20.17;;;;;;;;;;5088676;28;20224;-61
2021/09/11 05:23:16;;;;;;;25.03;22.60;;;;;;;;;;5088365;28;20635;-62
2021/09/11 05:25:41;;;;;;;23.70;21.47;;;;;;;;;;5082323;28;20303;-60
2021/09/11 05:28:06;;;;;;;22.47;20.20;;;;;;;;;;5082131;28;20259;-61
2021/09/11 05:30:31;;;;;;;26.10;23.37;;;;;;;;;;5067993;28;20365;-61
2021/09/11 05:32:57;;;;;;;23.83;21.50;;;;;;;;;;5082029;28;20224;-61
2021/09/11 05:35:22;;;;;;;27.63;24.70;;;;;;;;;;5088040;28;20755;-62
2021/09/11 05:37:47;;;;;;;23.77;21.77;;;;;;;;;;5087808;28;20215;-61
2021/09/11 05:40:13;;;;;;;26.33;23.13;;;;;;;;;;5081457;28;20223;-62
2021/09/11 05:42:38;;;;;;;24.80;22.60;;;;;;;;;;5082474;28;20713;-61
2021/09/11 05:45:06;;;;;;;23.80;21.50;;;;;;;;;;5088536;28;20278;-61
2021/09/11 05:47:32;;;;;;;23.87;21.37;;;;;;;;;;5087640;28;20226;-62
2021/09/11 05:49:58;;;;;;;22.13;20.13;;;;;;;;;;5081004;28;20469;-61
2021/09/11 05:52:24;;;;;;;22.67;20.37;;;;;;;;;;5081775;28;20477;-62
2021/09/11 05:54:49;;;;;;;22.60;20.50;;;;;;;;;;5088458;28;20220;-62
2021/09/11 05:57:14;;;;;;;21.73;19.17;;;;;;;;;;5087437;28;20458;-61
2021/09/11 05:59:40;;;;;;;23.90;21.77;;;;;;;;;;5062633;28;20219;-61
2021/09/11 06:02:06;;;;;;;22.67;20.50;;;;;;;;;;5081820;28;20286;-62
2021/09/11 06:04:31;;;;;;;20.97;19.27;;;;;;;;;;5087800;28;20459;-61
2021/09/11 06:06:56;;;;;;;21.13;19.33;;;;;;;;;;5087200;28;20235;-62
2021/09/11 06:09:22;;;;;;;21.33;19.53;;;;;;;;;;5080496;28;20258;-62
2021/09/11 06:11:47;;;;;;;22.20;20.07;;;;;;;;;;5094645;28;20265;-61
2021/09/11 06:14:12;;;;;;;21.43;19.63;;;;;;;;;;5081011;28;20239;-62
2021/09/11 06:16:38;;;;;;;23.20;20.80;;;;;;;;;;5082175;28;20227;-62
2021/09/11 06:19:03;;;;;;;22.87;20.73;;;;;;;;;;5087878;28;20352;-62
2021/09/11 06:21:28;;;;;;;23.23;20.87;;;;;;;;;;5084688;28;20234;-62
2021/09/11 06:23:54;;;;;;;19.80;17.90;;;;;;;;;;5081028;28;20671;-61
2021/09/11 06:26:19;;;;;;;19.00;17.40;;;;;;;;;;5082471;28;20219;-61
2021/09/11 06:28:44;;;;;;;19.90;18.00;;;;;;;;;;5087695;28;20220;-61
2021/09/11 06:31:09;;;;;;;19.60;18.00;;;;;;;;;;5085820;28;20592;-62
2021/09/11 06:33:35;;;;;;;23.60;19.03;;;;;;;;;;5080224;28;20215;-61
2021/09/11 06:36:00;;;;;;;22.53;20.30;;;;;;;;;;5083418;28;20682;-61
2021/09/11 06:38:25;;;;;;;18.83;17.23;;;;;;;;;;5087245;28;20220;-61
2021/09/11 06:40:51;;;;;;;21.87;19.97;;;;;;;;;;5084626;28;20224;-61
2021/09/11 06:43:16;;;;;;;19.07;17.37;;;;;;;;;;5063071;28;20255;-62
2021/09/11 06:45:41;;;;;;;19.40;17.63;;;;;;;;;;5083358;28;20247;-61
2021/09/11 06:48:06;;;;;;;21.80;19.83;;;;;;;;;;5087603;28;20540;-61
2021/09/11 06:50:32;;;;;;;19.53;17.43;;;;;;;;;;5083312;28;20306;-61
2021/09/11 06:52:57;;;;;;;22.00;19.77;;;;;;;;;;5080257;28;20560;-62
2021/09/11 06:55:22;;;;;;;18.30;16.60;;;;;;;;;;5083803;28;20252;-61
2021/09/11 06:57:47;;;;;;;19.43;17.63;;;;;;;;;;5086049;28;20600;-61
2021/09/11 07:00:13;;;;;;;20.33;18.43;;;;;;;;;;5085090;28;20236;-61
2021/09/11 07:02:38;;;;;;;20.83;18.90;;;;;;;;;;5079708;28;20707;-61
2021/09/11 07:05:04;;;;;;;18.30;16.60;;;;;;;;;;5083202;28;20209;-61
2021/09/11 07:07:31;;;;;;;19.20;17.27;;;;;;;;;;5086812;28;20307;-61
2021/09/11 07:09:56;;;;;;;19.63;17.73;;;;;;;;;;5084309;28;20215;-63
2021/09/11 07:12:23;;;;;;;20.50;18.60;;;;;;;;;;5079819;28;20473;-62
2021/09/11 07:14:48;;;;;;;19.10;17.30;;;;;;;;;;5083481;28;20259;-62
2021/09/11 07:17:13;;;;;;;20.07;18.30;;;;;;;;;;5087237;28;20491;-62
2021/09/11 07:19:39;;;;;;;18.27;16.60;;;;;;;;;;5083185;28;20729;-61
2021/09/11 07:22:04;;;;;;;18.70;16.80;;;;;;;;;;5080119;28;20247;-62
2021/09/11 07:24:29;;;;;;;19.23;17.33;;;;;;;;;;5083669;28;20254;-62
2021/09/11 07:26:55;;;;;;;18.00;16.30;;;;;;;;;;5087006;28;20604;-61
2021/09/11 07:29:20;;;;;;;18.23;16.33;;;;;;;;;;5082419;28;20211;-61
2021/09/11 07:31:45;;;;;;;18.07;15.93;;;;;;;;;;5079561;28;20299;-61
2021/09/11 07:34:10;;;;;;;18.60;16.90;;;;;;;;;;5088694;28;20223;-61
2021/09/11 07:36:36;;;;;;;19.67;17.90;;;;;;;;;;5087495;28;20247;-61
2021/09/11 07:39:02;;;;;;;18.20;16.50;;;;;;;;;;5088964;28;20350;-62
2021/09/11 07:41:27;;;;;;;18.67;16.77;;;;;;;;;;5090229;28;20219;-61
2021/09/11 07:43:52;;;;;;;18.70;16.90;;;;;;;;;;5085989;28;20216;-61
2021/09/11 07:46:17;;;;;;;17.20;15.50;;;;;;;;;;5083793;28;20307;-61
2021/09/11 07:48:43;;;;;;;18.00;16.10;;;;;;;;;;5096284;28;20230;-61
2021/09/11 07:51:08;;;;;;;18.60;16.87;;;;;;;;;;5083478;28;20311;-62
2021/09/11 07:53:33;;;;;;;17.63;16.10;;;;;;;;;;5090569;28;21001;-61
2021/09/11 07:56:00;;;;;;;19.67;17.93;;;;;;;;;;5089966;28;20263;-61
2021/09/11 07:58:25;;;;;;;18.83;17.30;;;;;;;;;;5055574;28;20217;-62
2021/09/11 08:00:52;;;;;;;20.30;18.50;;;;;;;;;;5086302;28;20454;-62
2021/09/11 08:03:17;;;;;;;21.03;19.03;;;;;;;;;;5086509;28;20223;-61
2021/09/11 08:05:43;;;;;;;20.83;18.93;;;;;;;;;;5082817;28;20596;-61
2021/09/11 08:08:08;;;;;;;20.80;18.80;;;;;;;;;;5088158;28;20307;-61
2021/09/11 08:10:33;;;;;;;19.33;17.43;;;;;;;;;;5072126;28;20716;-61
2021/09/11 08:12:58;;;;;;;19.70;18.00;;;;;;;;;;5085134;28;20610;-62
2021/09/11 08:15:24;;;;;;;19.53;17.83;;;;;;;;;;5082899;28;20294;-63
2021/09/11 08:17:49;;;;;;;21.77;19.60;;;;;;;;;;5088881;28;20295;-62
2021/09/11 08:20:14;;;;;;;20.53;18.50;;;;;;;;;;5089848;28;20284;-62
2021/09/11 08:22:40;;;;;;;20.53;18.70;;;;;;;;;;5083591;28;20600;-66
2021/09/11 08:25:06;;;;;;;21.30;19.20;;;;;;;;;;5083253;28;20659;-66
2021/09/11 08:27:32;;;;;;;20.93;19.07;;;;;;;;;;5089230;28;20462;-66
2021/09/11 08:29:57;;;;;;;22.27;20.27;;;;;;;;;;5089956;28;20470;-66
2021/09/11 08:32:22;;;;;;;21.80;19.70;;;;;;;;;;5083206;28;20224;-67
2021/09/11 08:34:47;;;;;;;21.20;19.10;;;;;;;;;;5082613;28;20224;-67
2021/09/11 08:37:13;;;;;;;21.63;19.63;;;;;;;;;;5090955;28;20258;-67
2021/09/11 08:39:38;;;;;;;22.17;20.07;;;;;;;;;;5064805;28;20243;-66
2021/09/11 08:42:04;;;;;;;19.60;17.90;;;;;;;;;;5089729;28;20299;-66
2021/09/11 08:44:30;;;;;;;21.00;17.47;;;;;;;;;;5088537;28;20220;-66
2021/09/11 08:46:55;;;;;;;19.33;17.23;;;;;;;;;;5082460;28;20264;-66
2021/09/11 08:49:21;;;;;;;20.37;16.83;;;;;;;;;;5083085;28;20962;-66
2021/09/11 08:51:46;;;;;;;17.27;15.80;;;;;;;;;;5088999;28;20649;-66
2021/09/11 08:54:18;;;;;;;18.03;16.33;;;;;;;;;;5088871;28;20538;-67
2021/09/11 08:56:44;;;;;;;16.57;15.17;;;;;;;;;;5070166;28;20360;-66
2021/09/11 08:59:11;;;;;;;14.63;13.33;;;;;;;;;;5064417;28;20962;-66
2021/09/11 09:01:37;;;;;;;15.93;14.53;;;;;;;;;;5087013;28;20231;-66
2021/09/11 09:04:03;;;;;;;16.73;15.03;;;;;;;;;;5089245;28;20458;-66
2021/09/11 09:06:30;;;;;;;16.47;15.07;;;;;;;;;;5083582;28;20215;-64
2021/09/11 09:09:09;;;;;;;15.83;14.57;;;;;;;;;;5082096;28;20508;-66
2021/09/11 09:11:36;;;;;;;15.30;13.90;;;;;;;;;;5085221;28;20485;-66
2021/09/11 09:14:14;;;;;;;16.03;14.73;;;;;;;;;;5088866;28;20946;-67
2021/09/11 09:16:42;;;;;;;14.97;13.67;;;;;;;;;;5087785;28;20471;-66
2021/09/11 09:19:15;;;;;;;13.73;12.57;;;;;;;;;;5082286;28;20940;-66
2021/09/11 09:21:42;;;;;;;14.17;12.57;;;;;;;;;;5081312;28;20485;-67
2021/09/11 09:24:09;;;;;;;12.53;11.53;;;;;;;;;;5088519;28;20458;-66
2021/09/11 09:26:52;;;;;;;13.57;12.37;;;;;;;;;;5088410;28;20961;-66
2021/09/11 09:29:18;;;;;;;13.33;12.23;;;;;;;;;;5084569;28;20952;-66
2021/09/11 09:31:44;;;;;;;12.60;11.60;;;;;;;;;;5081081;28;20562;-66
2021/09/11 09:34:09;;;;;;;14.00;12.80;;;;;;;;;;5086088;28;20945;-66
2021/09/11 09:36:39;;;;;;;13.13;12.13;;;;;;;;;;5068092;28;20467;-66
2021/09/11 09:39:07;;;;;;;13.00;11.87;;;;;;;;;;5085734;28;20235;-66
2021/09/11 09:41:52;;;;;;;12.40;11.40;;;;;;;;;;5088316;28;20466;-67
2021/09/11 09:44:20;;;;;;;13.47;12.37;;;;;;;;;;5087458;28;20473;-66
2021/09/11 09:46:47;;;;;;;13.20;12.00;;;;;;;;;;5081057;28;20790;-65
2021/09/11 09:49:21;;;;;;;13.57;12.27;;;;;;;;;;5082559;28;20475;-67
2021/09/11 09:51:47;;;;;;;12.43;11.13;;;;;;;;;;5068157;28;20477;-66
2021/09/11 09:54:14;;;;;;;12.40;10.67;;;;;;;;;;5081843;28;20531;-66
2021/09/11 09:56:40;;;;;;;13.33;12.13;;;;;;;;;;5050026;28;20458;-65
2021/09/11 09:59:06;;;;;;;11.03;10.00;;;;;;;;;;5063792;28;20512;-66
2021/09/11 10:01:31;;;;;;;11.70;10.80;;;;;;;;;;5086480;28;20224;-65
2021/09/11 10:03:56;;;;;;;12.47;11.37;;;;;;;;;;5087909;28;20921;-66
2021/09/11 10:06:26;;;;;;;11.60;10.50;;;;;;;;;;5082384;28;20614;-67
2021/09/11 10:08:54;;;;;;;11.00;10.00;;;;;;;;;;5062960;28;20311;-67
2021/09/11 10:11:20;;;;;;;12.20;11.10;;;;;;;;;;5062003;28;20475;-67
2021/09/11 10:14:12;;;;;;;10.83;9.93;;;;;;;;;;5087520;28;20542;-66
2021/09/11 10:16:39;;;;;;;11.40;10.43;;;;;;;;;;5073383;28;20253;-67
2021/09/11 10:19:18;;;;;;;10.53;9.63;;;;;;;;;;5080900;28;20457;-67
2021/09/11 10:21:44;;;;;;;10.87;10.00;;;;;;;;;;5079798;28;20521;-66
2021/09/11 10:24:16;;;;;;;11.10;10.10;;;;;;;;;;5087721;28;20810;-66
2021/09/11 10:27:18;;;;;;;12.73;11.60;;;;;;;;;;5087797;28;20567;-67
2021/09/11 10:29:57;;;;;;;14.00;12.90;;;;;;;;;;5047558;28;20994;-66
2021/09/11 10:32:35;;;;;;;13.20;12.10;;;;;;;;;;5069516;28;20473;-66
2021/09/11 10:35:03;;;;;;;15.73;14.53;;;;;;;;;;5078275;28;20446;-66
2021/09/11 10:37:37;;;;;;;15.70;14.40;;;;;;;;;;5086637;28;20515;-66
2021/09/11 10:40:33;;;;;;;14.47;13.23;;;;;;;;;;5077547;28;20454;-66
2021/09/11 10:43:04;;;;;;;13.60;12.40;;;;;;;;;;5077436;28;20774;-67
2021/09/11 10:45:52;;;;;;;15.23;14.03;;;;;;;;;;5086901;28;20514;-67
2021/09/11 10:48:33;;;;;;;14.70;13.40;;;;;;;;;;5080230;28;20544;-67
2021/09/11 10:51:24;;;;;;;14.20;13.10;;;;;;;;;;5080154;28;20466;-67
2021/09/11 10:54:04;;;;;;;13.60;12.27;;;;;;;;;;5083216;28;20860;-66
2021/09/11 10:56:39;;;;;;;12.97;11.90;;;;;;;;;;5080761;28;20749;-66
2021/09/11 10:59:19;;;;;;;13.80;12.60;;;;;;;;;;5079784;28;20451;-67
2021/09/11 11:02:04;;;;;;;11.90;10.90;;;;;;;;;;5082953;28;20478;-64
2021/09/11 11:04:35;;;;;;;11.03;10.13;;;;;;;;;;5087355;28;20467;-65
2021/09/11 11:07:03;;;;;;;11.67;10.77;;;;;;;;;;5085995;28;20778;-65
2021/09/11 11:09:33;;;;;;;12.87;11.77;;;;;;;;;;5080139;28;20549;-65
2021/09/11 11:11:58;;;;;;;12.90;11.70;;;;;;;;;;5079679;28;20478;-66
2021/09/11 11:14:24;;;;;;;11.33;10.43;;;;;;;;;;5086645;28;20557;-67
2021/09/11 11:16:54;;;;;;;11.23;10.30;;;;;;;;;;5086756;28;20357;-67
2021/09/11 11:19:26;;;;;;;10.20;9.30;;;;;;;;;;5081382;28;20659;-66
2021/09/11 11:22:04;;;;;;;9.17;8.40;;;;;;;;;;5079358;28;20478;-65
2021/09/11 11:24:37;;;;;;;8.20;7.60;;;;;;;;;;5083329;28;20474;-66
2021/09/11 11:27:08;;;;;;;9.67;9.00;;;;;;;;;;5086436;28;20463;-66
2021/09/11 11:29:33;;;;;;;8.60;7.90;;;;;;;;;;5085553;28;20517;-66
2021/09/11 11:32:01;;;;;;;8.33;7.73;;;;;;;;;;5079463;28;21004;-66
2021/09/11 11:34:26;;;;;;;9.20;8.40;;;;;;;;;;5081381;28;20243;-65
2021/09/11 11:36:54;;;;;;;9.10;8.40;;;;;;;;;;5086268;28;20466;-66
2021/09/11 11:39:33;;;;;;;9.97;9.23;;;;;;;;;;5085466;28;20228;-65
2021/09/11 11:42:17;;;;;;;8.63;8.00;;;;;;;;;;5066929;28;20458;-66
2021/09/11 11:44:52;;;;;;;9.33;7.97;;;;;;;;;;5076505;28;20454;-67
2021/09/11 11:47:23;;;;;;;8.90;8.20;;;;;;;;;;5082393;28;20477;-67
2021/09/11 11:49:50;;;;;;;7.97;7.30;;;;;;;;;;5086114;28;20806;-67
2021/09/11 11:52:16;;;;;;;7.33;6.70;;;;;;;;;;5084607;28;20480;-68
2021/09/11 11:54:48;;;;;;;6.70;6.20;;;;;;;;;;5079637;28;20464;-68
2021/09/11 11:57:15;;;;;;;7.90;7.20;;;;;;;;;;5063371;28;20508;-67
2021/09/11 11:59:41;;;;;;;8.47;7.77;;;;;;;;;;5079185;28;20473;-67
2021/09/11 12:02:24;;;;;;;9.53;7.60;;;;;;;;;;5079594;28;20463;-68
2021/09/11 12:04:50;;;;;;;7.63;7.03;;;;;;;;;;5069943;28;20538;-66
2021/09/11 12:07:27;;;;;;;6.43;6.00;;;;;;;;;;5088602;28;20949;-68
2021/09/11 12:09:52;;;;;;;6.80;6.30;;;;;;;;;;5082772;28;20797;-67
2021/09/11 12:12:18;;;;;;;6.60;6.10;;;;;;;;;;5079541;28;20476;-67
2021/09/11 12:14:45;;;;;;;7.53;5.80;;;;;;;;;;5083002;28;20232;-67
2021/09/11 12:17:14;;;;;;;5.57;5.13;;;;;;;;;;5068340;28;20239;-67
2021/09/11 12:19:39;;;;;;;5.30;4.90;;;;;;;;;;5084386;28;20484;-67
2021/09/11 12:22:21;;;;;;;4.80;4.40;;;;;;;;;;5082695;28;20461;-67
2021/09/11 12:24:47;;;;;;;4.90;4.50;;;;;;;;;;5084098;28;20220;-68
2021/09/11 12:27:16;;;;;;;5.37;4.97;;;;;;;;;;5089441;28;20516;-67
2021/09/11 12:29:41;;;;;;;5.70;5.20;;;;;;;;;;5089271;28;20325;-67
2021/09/11 12:32:07;;;;;;;5.40;4.90;;;;;;;;;;5080336;28;20457;-66
2021/09/11 12:34:43;;;;;;;5.13;4.80;;;;;;;;;;5058665;28;20217;-67
2021/09/11 12:37:08;;;;;;;4.97;4.67;;;;;;;;;;5070895;28;20231;-67
2021/09/11 12:39:35;;;;;;;5.20;4.80;;;;;;;;;;5081982;28;20490;-67
2021/09/11 12:42:04;;;;;;;7.23;5.20;;;;;;;;;;5088748;28;20661;-67
2021/09/11 12:44:32;;;;;;;5.53;4.40;;;;;;;;;;5089670;28;20458;-66
2021/09/11 12:47:03;;;;;;;5.57;5.07;;;;;;;;;;5065814;28;20953;-66
2021/09/11 12:49:29;;;;;;;6.43;5.93;;;;;;;;;;5082760;28;20945;-67
2021/09/11 12:51:56;;;;;;;5.30;4.90;;;;;;;;;;5087656;28;20463;-65
2021/09/11 12:54:22;;;;;;;6.53;5.20;;;;;;;;;;5089232;28;20219;-66
2021/09/11 12:56:48;;;;;;;5.33;4.83;;;;;;;;;;5066742;28;20465;-68
2021/09/11 12:59:14;;;;;;;5.50;5.00;;;;;;;;;;5082048;28;20455;-67
2021/09/11 13:01:41;;;;;;;4.73;4.30;;;;;;;;;;5086497;28;20949;-65
2021/09/11 13:04:07;;;;;;;4.93;4.53;;;;;;;;;;5089022;28;20230;-66
2021/09/11 13:06:33;;;;;;;5.57;5.07;;;;;;;;;;5085545;28;20468;-67
2021/09/11 13:08:59;;;;;;;6.03;5.47;;;;;;;;;;5064712;28;20466;-67
2021/09/11 13:11:25;;;;;;;26.77;23.93;;;;;;;;;;5086151;28;20466;-66
2021/09/11 13:13:50;;;;;;;28.30;25.50;;;;;;;;;;5088961;28;20468;-68
2021/09/11 13:16:16;;;;;;;17.40;15.80;;;;;;;;;;5084966;28;20234;-67
2021/09/11 13:18:42;;;;;;;7.23;6.60;;;;;;;;;;5082069;28;20213;-67
2021/09/11 13:21:08;;;;;;;17.17;15.43;;;;;;;;;;5085726;28;20782;-67
2021/09/11 13:23:35;;;;;;;8.83;7.17;;;;;;;;;;5088841;28;20804;-68
2021/09/11 13:26:01;;;;;;;8.00;7.40;;;;;;;;;;5084679;28;20970;-68
2021/09/11 13:28:26;;;;;;;7.47;6.83;;;;;;;;;;5081850;28;20516;-67
2021/09/11 13:30:51;;;;;;;10.33;9.33;;;;;;;;;;5067266;28;20285;-65
2021/09/11 13:33:17;;;;;;;10.13;9.13;;;;;;;;;;5088084;28;20494;-67
2021/09/11 13:35:43;;;;;;;24.47;22.07;;;;;;;;;;5067035;28;20224;-66
2021/09/11 13:38:08;;;;;;;15.47;13.97;;;;;;;;;;5081348;28;20213;-67
2021/09/11 13:40:34;;;;;;;45.20;40.40;;;;;;;;;;5086052;28;20561;-65
2021/09/11 13:42:59;;;;;;;5.97;5.47;;;;;;;;;;5087967;28;20280;-67
2021/09/11 13:45:24;;;;;;;6.33;5.73;;;;;;;;;;5083037;28;20298;-67
2021/09/11 13:47:50;;;;;;;5.83;5.33;;;;;;;;;;5081442;28;20266;-67
2021/09/11 13:50:16;;;;;;;13.07;11.87;;;;;;;;;;5085810;28;20232;-68
2021/09/11 13:52:41;;;;;;;9.97;9.07;;;;;;;;;;5076116;28;20465;-68
2021/09/11 13:55:06;;;;;;;8.00;7.40;;;;;;;;;;5083172;28;20277;-67
2021/09/11 13:57:32;;;;;;;13.57;12.37;;;;;;;;;;5061691;28;20217;-68
2021/09/11 13:59:57;;;;;;;12.00;10.80;;;;;;;;;;5081832;28;20220;-68
2021/09/11 14:02:22;;;;;;;8.80;8.00;;;;;;;;;;5081243;28;20640;-68
2021/09/11 14:04:47;;;;;;;10.10;9.20;;;;;;;;;;5087212;28;20220;-67
2021/09/11 14:07:13;;;;;;;17.00;15.17;;;;;;;;;;5069866;28;20302;-68
2021/09/11 14:09:38;;;;;;;14.47;13.00;;;;;;;;;;5064740;28;20238;-67
2021/09/11 14:12:03;;;;;;;9.43;8.00;;;;;;;;;;5080623;28;20213;-67
2021/09/11 14:14:29;;;;;;;10.93;9.97;;;;;;;;;;5086798;28;20695;-68
2021/09/11 14:16:54;;;;;;;11.13;10.13;;;;;;;;;;5088080;28;20216;-67
2021/09/11 14:19:19;;;;;;;10.40;9.50;;;;;;;;;;5063924;28;20306;-67